createdAt,value
2023-04-07T00:00:00.253Z,9.07
2023-04-07T00:02:28.813Z,8.68
2023-04-07T00:04:58.824Z,9.65
2023-04-07T00:07:25.893Z,8.77
2023-04-07T00:09:57.864Z,9.32
2023-04-07T00:12:24.798Z,9.20
2023-04-07T00:14:52.023Z,9.02
2023-04-07T00:17:19.299Z,9.48
2023-04-07T00:19:46.620Z,9.80
2023-04-07T00:22:13.717Z,9.15
2023-04-07T00:24:40.834Z,9.70
2023-04-07T00:27:07.931Z,9.23
2023-04-07T00:29:35.554Z,9.95
2023-04-07T00:32:03.075Z,8.63
2023-04-07T00:34:30.686Z,9.40
2023-04-07T00:36:57.887Z,9.00
2023-04-07T00:39:25.048Z,9.60
2023-04-07T00:41:52.399Z,9.07
2023-04-07T00:44:19.377Z,8.88
2023-04-07T00:46:47.964Z,9.57
2023-04-07T00:49:17.952Z,9.40
2023-04-07T00:51:46.047Z,9.25
2023-04-07T00:54:13.091Z,8.98
2023-04-07T00:56:42.520Z,9.55
2023-04-07T00:59:10.894Z,8.82
2023-04-07T01:01:48.604Z,9.40
2023-04-07T01:04:25.962Z,9.10
2023-04-07T01:06:57.214Z,9.38
2023-04-07T01:09:36.631Z,9.05
2023-04-07T01:12:28.254Z,9.13
2023-04-07T01:15:00.494Z,8.70
2023-04-07T01:17:28.866Z,8.88
2023-04-07T01:20:02.174Z,9.50
2023-04-07T01:22:35.419Z,8.43
2023-04-07T01:25:30.549Z,8.57
2023-04-07T01:28:00.478Z,8.37
2023-04-07T01:30:33.385Z,7.85
2023-04-07T01:33:02.495Z,8.32
2023-04-07T01:35:33.375Z,8.23
2023-04-07T01:38:02.445Z,9.52
2023-04-07T01:40:30.506Z,8.40
2023-04-07T01:42:58.352Z,8.95
2023-04-07T01:45:27.091Z,8.95
2023-04-07T01:47:55.577Z,8.63
2023-04-07T01:50:23.814Z,8.43
2023-04-07T01:52:51.825Z,8.47
2023-04-07T01:55:18.908Z,9.10
2023-04-07T01:57:46.353Z,8.85
2023-04-07T02:00:14.012Z,8.38
2023-04-07T02:02:44.561Z,8.50
2023-04-07T02:05:15.074Z,9.40
2023-04-07T02:08:01.144Z,9.55
2023-04-07T02:10:30.194Z,9.10
2023-04-07T02:13:00.401Z,8.35
2023-04-07T02:15:30.981Z,8.57
2023-04-07T02:17:59.604Z,9.57
2023-04-07T02:20:28.795Z,9.05
2023-04-07T02:22:56.331Z,8.40
2023-04-07T02:25:32.238Z,7.97
2023-04-07T02:28:01.604Z,8.23
2023-04-07T02:30:29.685Z,8.53
2023-04-07T02:32:56.875Z,8.90
2023-04-07T02:35:23.991Z,8.98
2023-04-07T02:37:51.339Z,8.77
2023-04-07T02:40:18.916Z,8.32
2023-04-07T02:42:46.989Z,8.90
2023-04-07T02:45:14.188Z,8.65
2023-04-07T02:47:42.044Z,8.57
2023-04-07T02:50:11.210Z,8.85
2023-04-07T02:52:38.796Z,8.35
2023-04-07T02:55:07.345Z,7.97
2023-04-07T02:57:34.740Z,8.73
2023-04-07T03:00:02.015Z,8.63
2023-04-07T03:02:29.226Z,8.00
2023-04-07T03:04:56.551Z,8.32
2023-04-07T03:07:24.122Z,8.53
2023-04-07T03:09:52.228Z,7.93
2023-04-07T03:12:19.199Z,8.85
2023-04-07T03:14:46.438Z,8.55
2023-04-07T03:17:13.442Z,8.85
2023-04-07T03:19:40.589Z,8.70
2023-04-07T03:22:08.476Z,8.98
2023-04-07T03:24:35.928Z,9.32
2023-04-07T03:27:02.885Z,8.82
2023-04-07T03:29:29.748Z,8.63
2023-04-07T03:31:57.044Z,9.43
2023-04-07T03:34:24.562Z,9.45
2023-04-07T03:36:51.596Z,8.52
2023-04-07T03:39:18.654Z,8.88
2023-04-07T03:41:45.998Z,8.80
2023-04-07T03:44:13.499Z,8.20
2023-04-07T03:46:40.780Z,9.02
2023-04-07T03:49:08.059Z,8.38
2023-04-07T03:51:35.167Z,8.85
2023-04-07T03:54:03.132Z,9.20
2023-04-07T03:56:30.129Z,9.17
2023-04-07T03:58:57.243Z,8.98
2023-04-07T04:01:24.901Z,9.18
2023-04-07T04:03:53.149Z,9.05
2023-04-07T04:06:20.700Z,8.43
2023-04-07T04:08:47.791Z,10.37
2023-04-07T04:11:15.018Z,9.45
2023-04-07T04:13:42.140Z,10.10
2023-04-07T04:16:09.762Z,9.13
2023-04-07T04:18:37.040Z,9.60
2023-04-07T04:21:04.201Z,9.03
2023-04-07T04:23:31.508Z,8.80
2023-04-07T04:26:00.328Z,10.00
2023-04-07T04:28:27.272Z,8.63
2023-04-07T04:30:54.431Z,9.07
2023-04-07T04:33:21.822Z,9.43
2023-04-07T04:35:48.993Z,8.57
2023-04-07T04:38:16.623Z,9.20
2023-04-07T04:40:43.697Z,8.73
2023-04-07T04:43:10.900Z,8.73
2023-04-07T04:45:38.009Z,8.67
2023-04-07T04:48:05.478Z,10.02
2023-04-07T04:50:32.804Z,9.43
2023-04-07T04:52:59.855Z,9.85
2023-04-07T04:55:26.901Z,9.98
2023-04-07T04:57:53.987Z,9.27
2023-04-07T05:00:21.340Z,9.00
2023-04-07T05:02:48.687Z,8.93
2023-04-07T05:05:16.088Z,8.68
2023-04-07T05:07:43.578Z,9.13
2023-04-07T05:10:11.396Z,9.57
2023-04-07T05:12:39.077Z,9.18
2023-04-07T05:15:07.070Z,9.45
2023-04-07T05:17:34.111Z,8.65
2023-04-07T05:20:01.670Z,9.23
2023-04-07T05:22:28.810Z,9.37
2023-04-07T05:24:56.169Z,9.57
2023-04-07T05:27:23.250Z,10.05
2023-04-07T05:29:52.796Z,9.95
2023-04-07T05:32:20.057Z,8.77
2023-04-07T05:34:47.177Z,9.47
2023-04-07T05:37:14.224Z,9.18
2023-04-07T05:39:41.332Z,9.98
2023-04-07T05:42:08.468Z,9.60
2023-04-07T05:44:36.067Z,10.38
2023-04-07T05:47:05.913Z,11.13
2023-04-07T05:49:33.878Z,9.45
2023-04-07T05:52:01.125Z,10.18
2023-04-07T05:54:32.401Z,9.98
2023-04-07T05:56:59.310Z,9.98
2023-04-07T05:59:26.920Z,9.27
2023-04-07T06:01:53.901Z,10.02
2023-04-07T06:04:21.362Z,9.90
2023-04-07T06:06:48.418Z,9.65
2023-04-07T06:09:15.613Z,9.55
2023-04-07T06:11:42.829Z,9.60
2023-04-07T06:14:09.779Z,9.32
2023-04-07T06:16:36.809Z,9.10
2023-04-07T06:19:04.148Z,9.63
2023-04-07T06:21:31.622Z,11.57
2023-04-07T06:23:58.454Z,10.83
2023-04-07T06:26:25.907Z,11.07
2023-04-07T06:28:52.837Z,10.38
2023-04-07T06:31:20.115Z,8.43
2023-04-07T06:33:48.168Z,10.27
2023-04-07T06:36:15.638Z,10.17
2023-04-07T06:38:43.327Z,10.38
2023-04-07T06:41:16.844Z,9.30
2023-04-07T06:43:45.059Z,9.88
2023-04-07T06:46:11.916Z,9.80
2023-04-07T06:48:38.979Z,9.50
2023-04-07T06:51:06.044Z,10.48
2023-04-07T06:53:33.344Z,10.38
2023-04-07T06:56:08.794Z,9.85
2023-04-07T06:58:37.143Z,11.02
2023-04-07T07:01:05.488Z,9.87
2023-04-07T07:03:33.583Z,9.32
2023-04-07T07:06:01.539Z,9.73
2023-04-07T07:08:29.733Z,9.18
2023-04-07T07:10:56.977Z,9.15
2023-04-07T07:13:26.709Z,9.53
2023-04-07T07:15:54.224Z,10.05
2023-04-07T07:18:21.253Z,10.43
2023-04-07T07:20:48.510Z,10.25
2023-04-07T07:23:15.547Z,9.82
2023-04-07T07:25:42.503Z,10.30
2023-04-07T07:28:09.821Z,9.52
2023-04-07T07:30:39.188Z,9.93
2023-04-07T07:33:06.159Z,9.57
2023-04-07T07:35:34.044Z,9.95
2023-04-07T07:38:01.695Z,9.27
2023-04-07T07:40:29.175Z,9.45
2023-04-07T07:42:56.097Z,9.90
2023-04-07T07:45:23.034Z,9.52
2023-04-07T07:47:50.469Z,8.63
2023-04-07T07:50:18.707Z,9.37
2023-04-07T07:52:45.968Z,9.15
2023-04-07T07:55:13.563Z,9.50
2023-04-07T07:57:40.500Z,9.95
2023-04-07T08:00:09.614Z,9.77
2023-04-07T08:02:36.739Z,9.80
2023-04-07T08:05:04.177Z,9.95
2023-04-07T08:07:31.087Z,9.60
2023-04-07T08:09:58.020Z,10.68
2023-04-07T08:12:25.079Z,10.40
2023-04-07T08:14:52.260Z,11.10
2023-04-07T08:17:19.376Z,10.07
2023-04-07T08:19:47.146Z,10.75
2023-04-07T08:22:14.052Z,10.38
2023-04-07T08:24:41.103Z,10.73
2023-04-07T08:27:08.311Z,10.63
2023-04-07T08:29:35.318Z,9.75
2023-04-07T08:32:02.361Z,10.15
2023-04-07T08:34:29.469Z,10.52
2023-04-07T08:36:56.473Z,10.50
2023-04-07T08:39:25.831Z,10.57
2023-04-07T08:41:54.758Z,10.27
2023-04-07T08:44:23.615Z,10.85
2023-04-07T08:46:53.872Z,10.18
2023-04-07T08:49:22.625Z,10.15
2023-04-07T08:51:50.927Z,9.90
2023-04-07T08:54:19.230Z,11.18
2023-04-07T08:56:46.622Z,11.48
2023-04-07T08:59:15.883Z,10.45
2023-04-07T09:01:43.306Z,10.00
2023-04-07T09:04:10.945Z,9.97
2023-04-07T09:06:38.389Z,9.90
2023-04-07T09:09:08.304Z,10.95
2023-04-07T09:11:37.449Z,9.82
2023-04-07T09:14:04.969Z,9.95
2023-04-07T09:16:32.346Z,10.00
2023-04-07T09:18:59.910Z,9.30
2023-04-07T09:21:29.526Z,9.77
2023-04-07T09:23:57.120Z,10.40
2023-04-07T09:26:27.261Z,9.70
2023-04-07T09:29:07.376Z,9.40
2023-04-07T09:31:50.574Z,9.25
2023-04-07T09:34:29.938Z,9.48
2023-04-07T09:36:57.905Z,9.07
2023-04-07T09:39:26.198Z,9.68
2023-04-07T09:41:53.887Z,8.57
2023-04-07T09:44:22.718Z,10.02
2023-04-07T09:46:50.759Z,9.50
2023-04-07T09:49:17.940Z,7.50
2023-04-07T09:52:07.895Z,8.90
2023-04-07T09:54:37.618Z,9.47
2023-04-07T09:57:07.134Z,8.73
2023-04-07T09:59:35.112Z,8.60
2023-04-07T10:02:03.938Z,8.48
2023-04-07T10:04:31.393Z,8.57
2023-04-07T10:07:00.244Z,8.73
2023-04-07T10:09:28.664Z,9.50
2023-04-07T10:11:58.159Z,8.80
2023-04-07T10:14:32.337Z,8.90
2023-04-07T10:17:04.424Z,9.05
2023-04-07T10:19:36.081Z,8.43
2023-04-07T10:22:06.354Z,9.27
2023-04-07T10:24:58.805Z,9.35
2023-04-07T10:27:39.205Z,8.60
2023-04-07T10:30:12.620Z,8.77
2023-04-07T10:32:50.949Z,7.97
2023-04-07T10:35:18.703Z,7.70
2023-04-07T10:38:07.938Z,8.85
2023-04-07T10:40:36.427Z,7.93
2023-04-07T10:43:09.556Z,7.80
2023-04-07T10:45:46.123Z,7.90
2023-04-07T10:48:15.550Z,7.65
2023-04-07T10:50:43.159Z,8.10
2023-04-07T10:53:15.538Z,8.65
2023-04-07T10:55:45.088Z,8.38
2023-04-07T10:58:15.478Z,9.10
2023-04-07T11:00:43.587Z,7.90
2023-04-07T11:03:14.493Z,8.25
2023-04-07T11:05:42.540Z,8.43
2023-04-07T11:08:09.561Z,7.97
2023-04-07T11:10:36.924Z,8.97
2023-04-07T11:13:08.248Z,8.27
2023-04-07T11:15:39.657Z,8.02
2023-04-07T11:18:08.182Z,7.70
2023-04-07T11:20:53.263Z,8.65
2023-04-07T11:23:23.829Z,8.10
2023-04-07T11:25:53.065Z,8.23
2023-04-07T11:28:20.463Z,7.75
2023-04-07T11:30:52.090Z,8.13
2023-04-07T11:33:22.416Z,7.60
2023-04-07T11:35:51.927Z,6.97
2023-04-07T11:38:21.346Z,7.78
2023-04-07T11:40:48.733Z,7.53
2023-04-07T11:43:23.064Z,8.40
2023-04-07T11:46:08.795Z,7.43
2023-04-07T11:48:37.387Z,8.20
2023-04-07T11:51:05.154Z,8.68
2023-04-07T11:53:41.112Z,9.70
2023-04-07T11:56:10.418Z,8.60
2023-04-07T11:58:37.799Z,8.38
2023-04-07T12:01:10.340Z,8.80
2023-04-07T12:03:38.440Z,8.73
2023-04-07T12:06:06.424Z,8.88
2023-04-07T12:08:41.893Z,7.72
2023-04-07T12:11:10.585Z,7.43
2023-04-07T12:13:37.914Z,7.40
2023-04-07T12:16:05.320Z,7.57
2023-04-07T12:18:32.735Z,7.87
2023-04-07T12:20:59.712Z,7.82
2023-04-07T12:23:26.888Z,7.65
2023-04-07T12:25:53.785Z,8.13
2023-04-07T12:28:21.562Z,7.60
2023-04-07T12:30:49.137Z,8.18
2023-04-07T12:33:16.492Z,8.25
2023-04-07T12:35:43.577Z,7.32
2023-04-07T12:38:11.125Z,7.60
2023-04-07T12:40:38.971Z,7.97
2023-04-07T12:43:06.553Z,8.55
2023-04-07T12:45:33.709Z,8.60
2023-04-07T12:48:01.145Z,8.43
2023-04-07T12:50:29.421Z,8.00
2023-04-07T12:52:59.105Z,8.45
2023-04-07T12:55:26.231Z,7.97
2023-04-07T12:57:53.129Z,8.27
2023-04-07T13:00:20.373Z,8.00
2023-04-07T13:02:48.318Z,8.47
2023-04-07T13:05:15.644Z,7.32
2023-04-07T13:07:42.622Z,7.85
2023-04-07T13:10:11.068Z,7.95
2023-04-07T13:12:39.931Z,8.60
2023-04-07T13:15:07.924Z,8.30
2023-04-07T13:17:36.751Z,8.60
2023-04-07T13:20:05.928Z,8.20
2023-04-07T13:22:35.698Z,8.60
2023-04-07T13:25:05.305Z,8.45
2023-04-07T13:27:32.450Z,9.97
2023-04-07T13:29:59.669Z,8.32
2023-04-07T13:32:27.236Z,11.93
2023-04-07T13:34:54.416Z,12.48
2023-04-07T13:37:21.416Z,8.40
2023-04-07T13:39:49.593Z,8.47
2023-04-07T13:42:20.931Z,9.57
2023-04-07T13:44:50.576Z,10.05
2023-04-07T13:47:21.682Z,9.05
2023-04-07T13:49:49.673Z,14.07
2023-04-07T13:52:16.730Z,20.57
2023-04-07T13:54:45.267Z,12.00
2023-04-07T13:57:14.768Z,11.10
2023-04-07T13:59:41.850Z,13.35
2023-04-07T14:02:09.234Z,10.02
2023-04-07T14:04:36.696Z,11.00
2023-04-07T14:07:04.008Z,10.25
2023-04-07T14:09:31.386Z,8.68
2023-04-07T14:11:58.706Z,10.43
2023-04-07T14:14:25.637Z,8.32
2023-04-07T14:16:53.370Z,8.70
2023-04-07T14:19:24.696Z,8.30
2023-04-07T14:21:52.107Z,9.07
2023-04-07T14:24:19.448Z,12.77
2023-04-07T14:26:46.629Z,9.85
2023-04-07T14:29:14.399Z,9.53
2023-04-07T14:31:41.352Z,8.50
2023-04-07T14:34:08.854Z,9.45
2023-04-07T14:36:35.946Z,9.00
2023-04-07T14:39:03.967Z,8.93
2023-04-07T14:41:31.659Z,9.10
2023-04-07T14:43:58.758Z,10.15
2023-04-07T14:46:29.202Z,10.27
2023-04-07T14:48:58.609Z,9.57
2023-04-07T14:51:25.693Z,9.60
2023-04-07T14:53:56.242Z,9.60
2023-04-07T14:56:24.899Z,9.57
2023-04-07T14:58:52.025Z,10.77
2023-04-07T15:01:19.177Z,9.48
2023-04-07T15:03:47.773Z,9.75
2023-04-07T15:06:16.863Z,8.93
2023-04-07T15:08:43.851Z,9.93
2023-04-07T15:11:11.165Z,10.20
2023-04-07T15:13:38.271Z,10.20
2023-04-07T15:16:14.110Z,10.25
2023-04-07T15:18:43.415Z,11.77
2023-04-07T15:21:12.331Z,13.20
2023-04-07T15:23:41.929Z,14.30
2023-04-07T15:26:09.940Z,11.70
2023-04-07T15:28:37.786Z,11.15
2023-04-07T15:31:09.884Z,13.43
2023-04-07T15:33:38.196Z,10.55
2023-04-07T15:36:09.160Z,10.20
2023-04-07T15:38:39.004Z,10.77
2023-04-07T15:41:06.661Z,11.90
2023-04-07T15:43:35.540Z,15.73
2023-04-07T15:46:02.419Z,14.50
2023-04-07T15:48:29.517Z,17.73
2023-04-07T15:50:56.886Z,15.85
2023-04-07T15:53:24.078Z,12.43
2023-04-07T15:55:51.586Z,12.20
2023-04-07T15:58:18.586Z,12.18
2023-04-07T16:00:45.841Z,16.02
2023-04-07T16:03:13.165Z,13.55
2023-04-07T16:05:40.310Z,11.65
2023-04-07T16:08:07.580Z,12.77
2023-04-07T16:10:34.444Z,12.63
2023-04-07T16:13:01.261Z,12.00
2023-04-07T16:15:39.387Z,11.70
2023-04-07T16:18:12.489Z,11.73
2023-04-07T16:20:39.849Z,11.13
2023-04-07T16:23:06.862Z,11.27
2023-04-07T16:25:33.769Z,11.73
2023-04-07T16:28:00.823Z,11.73
2023-04-07T16:30:38.580Z,12.98
2023-04-07T16:33:05.565Z,14.67
2023-04-07T16:35:32.616Z,14.00
2023-04-07T16:38:01.697Z,15.45
2023-04-07T16:40:28.967Z,16.80
2023-04-07T16:42:56.157Z,15.80
2023-04-07T16:45:23.240Z,12.40
2023-04-07T16:47:50.673Z,12.65
2023-04-07T16:50:18.206Z,16.87
2023-04-07T16:52:46.938Z,12.48
2023-04-07T16:55:14.110Z,12.32
2023-04-07T16:57:41.286Z,13.13
2023-04-07T17:00:10.089Z,12.07
2023-04-07T17:02:37.160Z,15.02
2023-04-07T17:05:04.420Z,15.02
2023-04-07T17:07:31.509Z,19.25
2023-04-07T17:09:59.424Z,16.03
2023-04-07T17:12:26.632Z,15.63
2023-04-07T17:14:53.821Z,13.98
2023-04-07T17:17:21.029Z,11.15
2023-04-07T17:19:48.555Z,10.45
2023-04-07T17:22:19.136Z,10.77
2023-04-07T17:24:46.050Z,11.75
2023-04-07T17:27:12.952Z,11.52
2023-04-07T17:29:40.392Z,11.43
2023-04-07T17:32:07.999Z,10.60
2023-04-07T17:34:34.885Z,10.87
2023-04-07T17:37:01.855Z,11.07
2023-04-07T17:39:29.174Z,12.82
2023-04-07T17:41:56.459Z,13.73
2023-04-07T17:44:23.511Z,12.52
2023-04-07T17:46:50.945Z,14.07
2023-04-07T17:49:18.185Z,12.98
2023-04-07T17:51:46.088Z,13.05
2023-04-07T17:54:13.315Z,12.15
2023-04-07T17:56:40.446Z,12.75
2023-04-07T17:59:07.540Z,12.37
2023-04-07T18:01:39.011Z,12.48
2023-04-07T18:04:06.611Z,11.63
2023-04-07T18:06:35.015Z,11.02
2023-04-07T18:09:02.161Z,11.27
2023-04-07T18:11:29.319Z,12.10
2023-04-07T18:13:56.618Z,11.10
2023-04-07T18:16:23.842Z,11.10
2023-04-07T18:18:51.619Z,9.88
2023-04-07T18:21:18.777Z,10.32
2023-04-07T18:23:45.826Z,8.73
2023-04-07T18:26:12.825Z,10.68
2023-04-07T18:28:39.876Z,11.57
2023-04-07T18:31:08.250Z,11.38
2023-04-07T18:33:36.405Z,10.18
2023-04-07T18:36:06.804Z,10.90
2023-04-07T18:38:35.588Z,11.32
2023-04-07T18:41:03.427Z,11.35
2023-04-07T18:43:30.848Z,10.23
2023-04-07T18:45:58.008Z,10.27
2023-04-07T18:48:25.185Z,10.90
2023-04-07T18:50:54.651Z,10.32
2023-04-07T18:53:23.218Z,10.98
2023-04-07T18:55:53.964Z,12.80
2023-04-07T18:58:21.531Z,16.25
2023-04-07T19:00:53.116Z,13.67
2023-04-07T19:03:22.006Z,12.25
2023-04-07T19:05:52.281Z,11.65
2023-04-07T19:08:20.196Z,11.98
2023-04-07T19:10:48.109Z,11.32
2023-04-07T19:13:18.534Z,11.73
2023-04-07T19:15:46.647Z,12.07
2023-04-07T19:18:13.879Z,11.57
2023-04-07T19:20:42.366Z,11.25
2023-04-07T19:23:09.396Z,11.68
2023-04-07T19:25:36.313Z,11.83
2023-04-07T19:28:04.005Z,10.85
2023-04-07T19:30:31.541Z,11.93
2023-04-07T19:32:58.739Z,10.65
2023-04-07T19:35:25.756Z,11.88
2023-04-07T19:37:53.871Z,11.40
2023-04-07T19:40:21.359Z,11.10
2023-04-07T19:42:48.700Z,12.50
2023-04-07T19:45:16.388Z,12.55
2023-04-07T19:47:44.526Z,12.85
2023-04-07T19:50:11.997Z,11.33
2023-04-07T19:52:39.034Z,11.93
2023-04-07T19:55:07.905Z,11.43
2023-04-07T19:57:36.506Z,9.15
2023-04-07T20:00:07.125Z,11.75
2023-04-07T20:02:34.956Z,11.93
2023-04-07T20:05:02.270Z,11.80
2023-04-07T20:07:31.286Z,11.32
2023-04-07T20:10:01.276Z,11.43
2023-04-07T20:12:28.783Z,11.32
2023-04-07T20:14:55.932Z,11.60
2023-04-07T20:17:24.877Z,12.45
2023-04-07T20:19:56.084Z,12.32
2023-04-07T20:22:23.067Z,11.60
2023-04-07T20:24:50.044Z,12.37
2023-04-07T20:27:18.289Z,12.63
2023-04-07T20:29:45.936Z,12.40
2023-04-07T20:32:13.024Z,12.57
2023-04-07T20:34:40.016Z,11.63
2023-04-07T20:37:06.907Z,11.18
2023-04-07T20:39:33.835Z,11.23
2023-04-07T20:42:00.824Z,11.43
2023-04-07T20:44:29.277Z,12.35
2023-04-07T20:46:56.400Z,10.00
2023-04-07T20:49:23.302Z,10.95
2023-04-07T20:51:50.514Z,10.60
2023-04-07T20:54:17.590Z,10.55
2023-04-07T20:56:45.158Z,10.95
2023-04-07T20:59:12.205Z,10.07
2023-04-07T21:01:39.185Z,10.68
2023-04-07T21:04:06.523Z,9.60
2023-04-07T21:06:33.677Z,9.55
2023-04-07T21:09:01.396Z,10.32
2023-04-07T21:11:28.644Z,10.82
2023-04-07T21:13:55.982Z,10.60
2023-04-07T21:16:23.130Z,9.30
2023-04-07T21:18:50.904Z,10.07
2023-04-07T21:21:18.228Z,10.80
2023-04-07T21:23:45.631Z,10.43
2023-04-07T21:26:12.627Z,10.90
2023-04-07T21:28:40.478Z,10.80
2023-04-07T21:31:08.545Z,10.38
2023-04-07T21:33:36.198Z,11.20
2023-04-07T21:36:04.134Z,10.32
2023-04-07T21:38:31.536Z,10.73
2023-04-07T21:40:58.481Z,10.27
2023-04-07T21:43:26.433Z,9.40
2023-04-07T21:45:53.723Z,9.35
2023-04-07T21:48:23.804Z,9.40
2023-04-07T21:50:52.435Z,9.65
2023-04-07T21:53:20.036Z,9.43
2023-04-07T21:55:47.337Z,9.05
2023-04-07T21:58:14.215Z,9.48
2023-04-07T22:00:41.236Z,9.35
2023-04-07T22:03:08.415Z,9.95
2023-04-07T22:05:35.536Z,9.83
2023-04-07T22:08:03.418Z,8.93
2023-04-07T22:10:31.469Z,9.30
2023-04-07T22:12:58.482Z,9.00
2023-04-07T22:15:25.488Z,8.38
2023-04-07T22:17:52.713Z,9.20
2023-04-07T22:20:19.774Z,9.18
2023-04-07T22:22:46.898Z,9.15
2023-04-07T22:25:13.808Z,8.90
2023-04-07T22:27:40.871Z,8.43
2023-04-07T22:30:10.170Z,9.07
2023-04-07T22:32:39.158Z,8.68
2023-04-07T22:35:07.055Z,9.05
2023-04-07T22:37:34.061Z,9.38
2023-04-07T22:40:01.631Z,9.40
2023-04-07T22:42:28.716Z,8.00
2023-04-07T22:44:55.879Z,8.02
2023-04-07T22:47:22.989Z,8.18
2023-04-07T22:49:50.835Z,8.73
2023-04-07T22:52:17.841Z,8.05
2023-04-07T22:54:44.871Z,9.00
2023-04-07T22:57:11.958Z,7.75
2023-04-07T22:59:39.646Z,8.68
2023-04-07T23:02:07.175Z,7.47
2023-04-07T23:04:34.450Z,8.27
2023-04-07T23:07:01.652Z,8.13
2023-04-07T23:09:28.909Z,8.05
2023-04-07T23:11:57.082Z,8.90
2023-04-07T23:14:24.382Z,7.87
2023-04-07T23:16:51.603Z,8.68
2023-04-07T23:19:18.768Z,8.23
2023-04-07T23:21:46.039Z,8.98
2023-04-07T23:24:13.483Z,9.63
2023-04-07T23:26:40.507Z,8.95
2023-04-07T23:29:07.449Z,9.23
2023-04-07T23:31:35.104Z,8.70
2023-04-07T23:34:04.973Z,8.52
2023-04-07T23:36:32.411Z,8.93
2023-04-07T23:38:59.389Z,8.73
2023-04-07T23:41:26.727Z,8.63
2023-04-07T23:43:53.771Z,8.63
2023-04-07T23:46:21.616Z,8.40
2023-04-07T23:48:49.396Z,8.77
2023-04-07T23:51:16.824Z,9.45
2023-04-07T23:53:44.102Z,9.77
2023-04-07T23:56:11.141Z,8.97
2023-04-07T23:58:38.094Z,9.00
